Time;durP1;ratioP1;P1;durP2;ratioP2;P2;SDS_P1;SDS_P2;PMS_P1;PMS_P2;Temp;Humidity;BMP_temperature;BMP_pressure;BME280_temperature;BME280_humidity;BME280_pressure;Samples;Min_cycle;Max_cycle;Signal;HPM_P1;HPM_P2
2023/08/24 00:00:38;;;;;;;18.25;14.98;;;30.40;53.80;;;;;;6215926;23;19997;-81
2023/08/24 00:03:04;;;;;;;17.48;14.60;;;30.40;53.90;;;;;;6215665;23;20013;-81
2023/08/24 00:05:35;;;;;;;19.40;15.52;;;30.30;53.80;;;;;;6237544;22;20031;-79
2023/08/24 00:08:00;;;;;;;24.98;16.80;;;30.30;54.00;;;;;;6245799;23;20011;-81
2023/08/24 00:10:26;;;;;;;19.35;15.82;;;30.30;54.00;;;;;;6245777;23;20004;-80
2023/08/24 00:12:52;;;;;;;21.20;16.48;;;30.30;54.10;;;;;;6245860;23;20004;-79
2023/08/24 00:15:18;;;;;;;25.02;16.20;;;30.20;54.10;;;;;;6246066;23;19997;-81
2023/08/24 00:17:44;;;;;;;19.88;16.17;;;30.20;54.20;;;;;;6245483;23;20007;-80
2023/08/24 00:20:10;;;;;;;21.95;15.75;;;30.30;54.10;;;;;;6245683;23;20336;-79
2023/08/24 00:22:38;;;;;;;19.80;15.75;;;30.20;54.00;;;;;;6245791;23;20090;-81
2023/08/24 00:25:05;;;;;;;20.60;15.77;;;30.20;54.20;;;;;;6245566;23;20015;-79
2023/08/24 00:27:30;;;;;;;19.02;15.35;;;30.20;53.90;;;;;;6245146;23;20453;-82
2023/08/24 00:29:56;;;;;;;19.25;15.80;;;30.20;54.00;;;;;;6245484;23;20000;-79
2023/08/24 00:32:23;;;;;;;19.17;16.55;;;30.20;54.10;;;;;;6245697;23;20000;-80
2023/08/24 00:34:49;;;;;;;20.20;15.93;;;30.20;54.60;;;;;;6245508;23;20019;-81
2023/08/24 00:37:15;;;;;;;18.13;15.90;;;30.20;54.30;;;;;;6243778;23;20434;-81
2023/08/24 00:39:41;;;;;;;18.60;15.55;;;30.10;54.20;;;;;;6245348;23;20057;-82
2023/08/24 00:42:08;;;;;;;22.73;16.13;;;30.20;54.20;;;;;;6245103;23;20507;-80
2023/08/24 00:44:34;;;;;;;23.40;15.38;;;30.10;54.20;;;;;;6245432;23;20008;-80
2023/08/24 00:47:00;;;;;;;18.88;15.55;;;30.00;54.40;;;;;;6245073;23;20469;-82
2023/08/24 00:49:26;;;;;;;18.38;15.05;;;30.10;54.50;;;;;;6245299;23;19992;-80
2023/08/24 00:51:52;;;;;;;23.73;15.77;;;30.10;54.60;;;;;;6245619;23;20000;-80
2023/08/24 00:54:18;;;;;;;22.83;15.35;;;30.00;54.50;;;;;;6245578;23;20362;-81
2023/08/24 00:56:44;;;;;;;18.17;15.38;;;30.10;54.70;;;;;;6245697;23;20135;-79
2023/08/24 00:59:11;;;;;;;19.90;16.45;;;30.10;54.70;;;;;;6245642;23;20000;-82
2023/08/24 01:01:39;;;;;;;17.33;15.18;;;30.00;54.60;;;;;;6249366;23;20056;-79
2023/08/24 01:04:07;;;;;;;18.55;15.18;;;29.90;54.90;;;;;;6245828;23;20043;-79
2023/08/24 01:06:33;;;;;;;16.73;15.07;;;30.00;55.00;;;;;;6245852;23;20020;-79
2023/08/24 01:08:59;;;;;;;20.58;16.08;;;29.90;55.00;;;;;;6245633;23;20004;-80
2023/08/24 01:11:43;;;;;;;20.00;15.52;;;29.90;54.80;;;;;;6245327;23;20379;-80
2023/08/24 01:14:29;;;;;;;18.40;15.00;;;29.90;54.80;;;;;;6245484;23;20000;-80
2023/08/24 01:16:58;;;;;;;17.80;15.55;;;29.80;55.00;;;;;;6244324;23;20001;-80
2023/08/24 01:19:53;;;;;;;17.10;15.30;;;29.80;55.10;;;;;;6245365;23;20019;-80
2023/08/24 01:22:35;;;;;;;20.92;14.80;;;29.80;54.90;;;;;;6212335;23;20023;-79
2023/08/24 01:25:17;;;;;;;16.60;14.88;;;29.80;54.90;;;;;;6244913;23;20399;-79
2023/08/24 01:27:43;;;;;;;16.20;14.50;;;29.80;54.70;;;;;;6245053;23;20054;-80
2023/08/24 01:30:09;;;;;;;17.92;13.98;;;29.80;54.90;;;;;;6218045;23;20004;-82
2023/08/24 01:32:36;;;;;;;15.95;14.10;;;29.80;54.60;;;;;;6247526;23;20453;-80
2023/08/24 01:35:05;;;;;;;15.70;13.40;;;29.70;54.50;;;;;;6249140;23;20008;-79
2023/08/24 01:37:32;;;;;;;16.67;13.82;;;29.70;54.40;;;;;;6245142;23;20011;-79
2023/08/24 01:40:11;;;;;;;18.05;14.93;;;29.70;54.50;;;;;;6218094;23;20005;-81
2023/08/24 01:42:47;;;;;;;14.73;13.23;;;29.60;54.40;;;;;;6245292;23;20073;-79
2023/08/24 01:45:14;;;;;;;20.15;14.10;;;29.50;54.60;;;;;;6245571;23;20000;-79
2023/08/24 01:47:42;;;;;;;15.80;14.20;;;29.50;54.50;;;;;;6245278;23;20001;-79
2023/08/24 01:50:09;;;;;;;19.48;14.27;;;29.60;54.60;;;;;;6245067;23;20003;-79
2023/08/24 01:52:35;;;;;;;15.18;13.63;;;29.60;54.40;;;;;;6245033;23;20070;-79
2023/08/24 01:55:01;;;;;;;15.65;13.32;;;29.60;54.40;;;;;;6244972;23;20130;-80
2023/08/24 01:57:27;;;;;;;16.55;13.30;;;29.60;54.30;;;;;;6244873;23;20321;-81
2023/08/24 01:59:52;;;;;;;17.20;13.70;;;29.60;54.30;;;;;;6218014;23;20006;-80
2023/08/24 02:02:18;;;;;;;15.98;13.15;;;29.60;54.30;;;;;;6244738;23;20008;-80
2023/08/24 02:04:44;;;;;;;15.00;13.30;;;29.60;54.20;;;;;;6244839;23;20477;-80
2023/08/24 02:07:09;;;;;;;17.15;13.02;;;29.60;54.20;;;;;;6243687;23;20012;-80
2023/08/24 02:09:35;;;;;;;15.80;13.30;;;29.60;54.20;;;;;;6218573;23;20015;-81
2023/08/24 02:12:01;;;;;;;17.90;13.68;;;29.60;54.20;;;;;;6252263;23;20008;-80
2023/08/24 02:14:27;;;;;;;15.32;13.18;;;29.50;54.20;;;;;;6249379;23;20014;-80
2023/08/24 02:16:53;;;;;;;15.10;13.20;;;29.50;54.30;;;;;;6251996;23;20362;-80
2023/08/24 02:19:18;;;;;;;14.52;12.73;;;29.40;54.20;;;;;;6246344;23;20000;-80
2023/08/24 02:21:44;;;;;;;16.40;12.82;;;29.40;54.40;;;;;;6244863;23;20008;-80
2023/08/24 02:24:10;;;;;;;18.00;14.05;;;29.40;54.20;;;;;;6244675;23;20008;-81
2023/08/24 02:26:35;;;;;;;17.02;12.63;;;29.30;54.40;;;;;;6244584;23;20011;-80
2023/08/24 02:29:01;;;;;;;16.75;12.38;;;29.40;54.40;;;;;;6244586;23;20000;-81
2023/08/24 02:31:27;;;;;;;16.63;13.57;;;29.40;54.30;;;;;;6244531;23;20012;-80
2023/08/24 02:33:53;;;;;;;19.08;14.27;;;29.40;54.30;;;;;;6244338;23;20012;-83
2023/08/24 02:36:19;;;;;;;16.58;12.88;;;29.40;54.30;;;;;;6244339;23;20000;-80
2023/08/24 02:38:44;;;;;;;18.23;13.57;;;29.40;54.20;;;;;;6244528;23;20421;-81
2023/08/24 02:41:10;;;;;;;15.43;13.30;;;29.30;54.40;;;;;;6244616;23;20084;-80
2023/08/24 02:43:37;;;;;;;16.55;13.82;;;29.30;54.60;;;;;;6244776;23;20122;-82
2023/08/24 02:46:04;;;;;;;16.67;13.45;;;29.20;54.60;;;;;;6244456;23;20006;-79
2023/08/24 02:48:30;;;;;;;19.08;13.60;;;29.10;54.80;;;;;;6245006;23;20032;-80
2023/08/24 02:51:00;;;;;;;14.82;13.15;;;29.20;55.00;;;;;;6245487;23;20434;-81
2023/08/24 02:53:26;;;;;;;16.58;14.20;;;29.20;54.80;;;;;;6219801;23;20425;-80
2023/08/24 02:55:53;;;;;;;17.98;13.70;;;29.20;54.80;;;;;;6246295;23;19996;-79
2023/08/24 02:58:19;;;;;;;16.23;13.52;;;29.10;54.90;;;;;;6246291;23;20027;-79
2023/08/24 03:00:46;;;;;;;18.50;13.27;;;29.10;54.90;;;;;;6246349;23;20000;-81
2023/08/24 03:03:13;;;;;;;17.17;13.55;;;29.10;54.80;;;;;;6246188;23;20088;-80
2023/08/24 03:05:39;;;;;;;15.75;14.10;;;29.00;54.80;;;;;;6246203;23;20016;-81
2023/08/24 03:08:05;;;;;;;16.42;13.90;;;29.00;55.00;;;;;;6247821;23;20081;-81
2023/08/24 03:10:34;;;;;;;17.10;14.02;;;29.00;55.10;;;;;;6246377;23;20030;-80
2023/08/24 03:13:00;;;;;;;14.45;12.95;;;29.00;55.20;;;;;;6219146;23;20091;-81
2023/08/24 03:15:25;;;;;;;18.23;13.88;;;28.90;55.10;;;;;;6246391;23;20461;-80
2023/08/24 03:17:52;;;;;;;17.13;13.63;;;28.80;55.20;;;;;;6246640;23;20071;-80
2023/08/24 03:20:18;;;;;;;19.60;14.07;;;28.80;55.10;;;;;;6247271;23;20004;-81
2023/08/24 03:22:44;;;;;;;17.45;13.38;;;28.70;55.40;;;;;;6253109;23;20446;-80
2023/08/24 03:25:10;;;;;;;14.63;12.82;;;28.70;55.70;;;;;;6220286;23;20027;-81
2023/08/24 03:27:35;;;;;;;18.38;13.88;;;28.70;55.60;;;;;;6247083;23;20001;-81
2023/08/24 03:30:04;;;;;;;17.85;14.15;;;28.70;55.70;;;;;;6246642;23;20058;-81
2023/08/24 03:32:29;;;;;;;16.95;14.38;;;28.70;55.90;;;;;;6248283;23;20075;-81
2023/08/24 03:35:02;;;;;;;16.67;14.30;;;28.60;56.00;;;;;;6252247;23;20003;-80
2023/08/24 03:37:28;;;;;;;15.93;13.57;;;28.60;56.50;;;;;;6252732;23;20012;-80
2023/08/24 03:39:54;;;;;;;17.88;14.45;;;28.50;56.10;;;;;;6248492;23;20000;-81
2023/08/24 03:42:20;;;;;;;20.42;14.43;;;28.50;56.20;;;;;;6246316;23;20023;-80
2023/08/24 03:44:45;;;;;;;16.55;13.90;;;28.60;56.20;;;;;;6246251;23;20046;-81
2023/08/24 03:47:11;;;;;;;17.88;14.43;;;28.60;56.40;;;;;;6247377;23;20394;-81
2023/08/24 03:49:37;;;;;;;19.77;15.98;;;28.60;56.30;;;;;;6246994;23;19996;-80
2023/08/24 03:52:03;;;;;;;16.35;14.07;;;28.60;56.40;;;;;;6246545;23;20008;-82
2023/08/24 03:54:29;;;;;;;15.02;13.48;;;28.60;56.60;;;;;;6245356;23;20007;-81
2023/08/24 03:56:54;;;;;;;18.02;14.38;;;28.60;56.20;;;;;;6246567;23;20004;-81
2023/08/24 03:59:20;;;;;;;16.20;13.35;;;28.70;56.10;;;;;;6246286;23;20099;-83
2023/08/24 04:01:46;;;;;;;15.00;13.40;;;28.60;55.90;;;;;;6246100;23;20000;-80
2023/08/24 04:04:11;;;;;;;15.63;13.07;;;28.70;56.10;;;;;;6194322;23;20047;-81
2023/08/24 04:06:37;;;;;;;16.42;13.95;;;28.70;56.10;;;;;;6219566;23;19996;-80
2023/08/24 04:09:06;;;;;;;18.85;14.30;;;28.70;56.30;;;;;;6246244;23;20006;-82
2023/08/24 04:11:31;;;;;;;17.88;13.80;;;28.70;56.10;;;;;;6219083;23;20012;-79
2023/08/24 04:13:57;;;;;;;14.10;12.60;;;28.60;56.30;;;;;;6246043;23;20295;-81
2023/08/24 04:16:23;;;;;;;18.05;13.60;;;28.60;56.40;;;;;;6246118;23;20075;-80
2023/08/24 04:18:48;;;;;;;16.13;13.38;;;28.50;56.40;;;;;;6245809;23;20051;-80
2023/08/24 04:21:14;;;;;;;15.27;13.70;;;28.50;56.50;;;;;;6245408;23;20004;-82
2023/08/24 04:23:44;;;;;;;14.80;13.25;;;28.50;56.30;;;;;;6245570;23;20019;-81
2023/08/24 04:26:11;;;;;;;16.85;13.80;;;28.40;56.40;;;;;;6245982;23;20008;-79
2023/08/24 04:28:37;;;;;;;22.20;14.52;;;28.40;56.30;;;;;;6250578;23;20057;-80
2023/08/24 04:31:03;;;;;;;16.88;13.13;;;28.40;56.50;;;;;;6245966;23;20007;-79
2023/08/24 04:33:29;;;;;;;21.08;13.30;;;28.40;56.70;;;;;;6245603;23;20000;-82
2023/08/24 04:35:54;;;;;;;18.05;14.13;;;28.40;56.70;;;;;;6245445;23;20035;-81
2023/08/24 04:38:20;;;;;;;15.35;13.73;;;28.40;56.50;;;;;;6245840;23;20000;-81
2023/08/24 04:40:51;;;;;;;14.75;12.52;;;28.40;56.60;;;;;;6245345;23;20382;-79
2023/08/24 04:43:17;;;;;;;15.05;12.25;;;28.50;56.50;;;;;;6245150;23;20012;-79
2023/08/24 04:45:43;;;;;;;18.42;13.55;;;28.40;56.60;;;;;;6245644;23;20079;-80
2023/08/24 04:48:09;;;;;;;17.50;13.43;;;28.40;56.60;;;;;;6245386;23;20000;-82
2023/08/24 04:50:34;;;;;;;15.82;12.65;;;28.50;56.60;;;;;;6245261;23;19996;-80
2023/08/24 04:53:00;;;;;;;14.10;12.70;;;28.50;56.60;;;;;;6245376;23;20084;-80
2023/08/24 04:55:25;;;;;;;16.40;13.32;;;28.50;56.50;;;;;;6245410;23;20001;-81
2023/08/24 04:57:51;;;;;;;15.50;13.27;;;28.50;56.40;;;;;;6245428;23;20027;-83
2023/08/24 05:00:18;;;;;;;16.13;14.20;;;28.40;56.30;;;;;;6245198;23;19996;-79
2023/08/24 05:02:44;;;;;;;21.15;13.73;;;28.40;56.40;;;;;;6245545;23;20115;-80
2023/08/24 05:05:16;;;;;;;16.98;13.27;;;28.50;56.40;;;;;;6245006;23;20013;-80
2023/08/24 05:07:42;;;;;;;19.05;13.68;;;28.50;56.30;;;;;;6245945;23;20079;-80
2023/08/24 05:10:08;;;;;;;15.23;13.60;;;28.50;56.50;;;;;;6245506;23;20465;-80
2023/08/24 05:12:35;;;;;;;18.25;12.63;;;28.50;56.30;;;;;;6244910;23;20081;-83
2023/08/24 05:15:04;;;;;;;16.77;13.32;;;28.50;56.40;;;;;;6245377;23;20004;-82
2023/08/24 05:17:31;;;;;;;16.77;13.10;;;28.50;56.40;;;;;;6244919;23;20012;-80
2023/08/24 05:19:59;;;;;;;17.90;13.00;;;28.60;56.30;;;;;;6244960;23;20004;-79
2023/08/24 05:22:24;;;;;;;18.10;12.63;;;28.50;56.30;;;;;;6244934;23;20430;-83
2023/08/24 05:24:50;;;;;;;23.05;13.00;;;28.60;56.30;;;;;;6245095;23;19996;-82
2023/08/24 05:27:16;;;;;;;16.80;13.63;;;28.60;56.10;;;;;;6244753;23;20095;-79
2023/08/24 05:29:42;;;;;;;18.35;13.32;;;28.70;56.00;;;;;;6245225;23;20003;-83
2023/08/24 05:32:08;;;;;;;17.92;13.60;;;28.70;56.00;;;;;;6245607;23;20000;-81
2023/08/24 05:34:33;;;;;;;15.43;13.10;;;28.80;56.00;;;;;;6248298;23;20015;-79
2023/08/24 05:36:59;;;;;;;21.75;13.82;;;28.80;55.90;;;;;;6254383;23;20003;-80
2023/08/24 05:39:25;;;;;;;14.63;12.65;;;28.80;55.60;;;;;;6245884;23;20008;-81
2023/08/24 05:41:52;;;;;;;17.80;12.80;;;28.80;55.50;;;;;;6245954;23;20418;-80
2023/08/24 05:44:18;;;;;;;17.17;14.35;;;28.90;55.40;;;;;;6251744;23;20482;-77
2023/08/24 05:46:45;;;;;;;16.80;12.75;;;29.10;55.20;;;;;;6245647;23;20086;-82
2023/08/24 05:49:11;;;;;;;20.23;13.55;;;29.30;54.80;;;;;;6244768;23;20068;-79
2023/08/24 05:51:37;;;;;;;18.58;13.27;;;29.50;54.30;;;;;;6244840;23;20035;-78
2023/08/24 05:54:03;;;;;;;17.63;13.35;;;29.70;53.80;;;;;;6244767;23;20391;-79
2023/08/24 05:56:29;;;;;;;17.17;13.48;;;29.80;53.60;;;;;;6244757;23;20012;-78
2023/08/24 05:58:57;;;;;;;17.45;13.27;;;30.10;53.20;;;;;;6244562;23;20008;-77
2023/08/24 06:01:23;;;;;;;16.98;13.00;;;30.30;53.00;;;;;;6217468;23;20334;-78
